Time;durP1;ratioP1;P1;durP2;ratioP2;P2;SDS_P1;SDS_P2;PMS_P1;PMS_P2;Temp;Humidity;BMP_temperature;BMP_pressure;BME280_temperature;BME280_humidity;BME280_pressure;Samples;Min_cycle;Max_cycle;Signal;HPM_P1;HPM_P2
2023/06/20 00:02:18;;;;;;;9.20;7.30;;;18.40;99.90;17.80;100460;;;;572217;247;24043;-81
2023/06/20 00:04:47;;;;;;;9.53;7.63;;;18.40;99.90;17.80;100456;;;;572153;247;24180;-81
2023/06/20 00:07:16;;;;;;;9.43;8.60;;;18.30;99.90;17.80;100454;;;;572310;247;23099;-80
2023/06/20 00:09:43;;;;;;;8.47;7.67;;;18.30;99.90;17.70;100459;;;;572543;247;24105;-80
2023/06/20 00:12:11;;;;;;;9.10;8.20;;;18.30;99.90;17.70;100456;;;;572846;245;24113;-79
2023/06/20 00:14:40;;;;;;;11.10;7.93;;;18.20;99.90;17.70;100452;;;;573954;247;24055;-80
2023/06/20 00:17:09;;;;;;;9.67;8.70;;;18.20;99.90;17.60;100461;;;;573578;247;24057;-80
2023/06/20 00:19:37;;;;;;;11.33;9.30;;;18.10;99.90;17.60;100460;;;;572979;247;24089;-81
2023/06/20 00:22:05;;;;;;;9.57;8.57;;;18.20;99.90;17.60;100457;;;;572818;247;24066;-81
2023/06/20 00:24:35;;;;;;;10.40;9.33;;;18.20;99.90;17.60;100453;;;;572775;247;24049;-81
2023/06/20 00:27:03;;;;;;;9.73;8.70;;;18.20;99.90;17.60;100447;;;;572740;247;24082;-82
2023/06/20 00:29:31;;;;;;;10.67;8.57;;;18.20;99.90;17.70;100451;;;;573165;247;24115;-78
2023/06/20 00:31:59;;;;;;;9.30;8.40;;;18.20;99.90;17.70;100453;;;;572949;247;24111;-81
2023/06/20 00:34:27;;;;;;;12.85;11.65;;;18.20;99.90;17.70;100444;;;;567967;247;35273;-82
2023/06/20 00:36:55;;;;;;;10.00;9.10;;;18.30;99.90;17.70;100452;;;;572910;247;24136;-82
2023/06/20 00:39:23;;;;;;;11.70;9.40;;;18.30;99.90;17.70;100450;;;;572440;247;24103;-82
2023/06/20 00:41:51;;;;;;;10.37;8.80;;;18.30;99.90;17.70;100447;;;;572576;247;24113;-82
2023/06/20 00:44:19;;;;;;;9.33;8.33;;;18.30;99.90;17.70;100443;;;;572535;247;24088;-80
2023/06/20 00:46:47;;;;;;;9.50;8.53;;;18.30;99.90;17.70;100447;;;;572697;247;24059;-80
2023/06/20 00:49:19;;;;;;;10.10;8.93;;;18.30;99.90;17.70;100447;;;;572261;247;24180;-80
2023/06/20 00:51:43;;;;;;;10.80;8.43;;;18.30;99.90;17.70;100453;;;;572014;247;24066;-81
2023/06/20 00:54:11;;;;;;;8.83;7.93;;;18.20;99.90;17.60;100455;;;;572306;247;24067;-80
2023/06/20 00:56:42;;;;;;;10.33;8.87;;;18.10;99.90;17.60;100448;;;;572108;247;24103;-81
2023/06/20 00:59:11;;;;;;;9.43;8.50;;;18.10;99.90;17.50;100446;;;;572143;247;24059;-79
2023/06/20 01:01:37;;;;;;;10.80;8.53;;;18.10;99.90;17.50;100443;;;;571944;247;24075;-80
2023/06/20 01:04:04;;;;;;;9.67;8.77;;;18.10;99.90;17.50;100456;;;;572270;247;24065;-81
2023/06/20 01:06:59;;;;;;;10.47;9.47;;;18.10;99.90;17.50;100444;;;;572261;247;24098;-81
2023/06/20 01:09:45;;;;;;;11.50;8.63;;;18.10;99.90;17.50;100457;;;;572576;247;24077;-80
2023/06/20 01:12:40;;;;;;;9.20;8.27;;;18.10;99.90;17.60;100455;;;;572576;247;24070;-80
2023/06/20 01:15:38;;;;;;;12.37;9.67;;;18.10;99.90;17.60;100457;;;;571814;247;24078;-80
2023/06/20 01:18:18;;;;;;;8.53;7.67;;;18.10;99.90;17.60;100452;;;;572549;247;24090;-80
2023/06/20 01:20:47;;;;;;;13.53;8.23;;;18.20;99.90;17.60;100456;;;;571574;247;24068;-80
2023/06/20 01:23:29;;;;;;;9.43;8.53;;;18.20;99.90;17.70;100453;;;;572012;247;24104;-81
2023/06/20 01:26:06;;;;;;;9.70;8.70;;;18.20;99.90;17.70;100450;;;;573336;246;24132;-80
2023/06/20 01:29:14;;;;;;;9.60;8.10;;;18.20;99.90;17.70;100450;;;;573071;247;23114;-80
2023/06/20 01:31:42;;;;;;;9.93;7.83;;;18.30;99.90;17.70;100455;;;;573224;247;24103;-80
2023/06/20 01:34:23;;;;;;;8.70;7.80;;;18.30;99.90;17.70;100449;;;;572443;247;24070;-80
2023/06/20 01:36:57;;;;;;;8.33;7.40;;;18.30;99.90;17.70;100446;;;;572566;247;24130;-80
2023/06/20 01:39:31;;;;;;;10.23;9.03;;;18.30;99.90;17.70;100449;;;;572703;247;24063;-81
2023/06/20 01:41:59;;;;;;;10.17;9.17;;;18.30;99.90;17.80;100449;;;;572750;247;24100;-82
2023/06/20 01:44:30;;;;;;;9.10;8.20;;;18.30;99.90;17.70;100446;;;;572611;247;24110;-82
2023/06/20 01:46:54;;;;;;;10.70;9.47;;;18.30;99.90;17.80;100448;;;;569876;247;24069;-82
2023/06/20 01:49:22;;;;;;;9.57;8.57;;;18.30;99.90;17.80;100447;;;;572820;247;23081;-81
2023/06/20 01:51:52;;;;;;;10.83;8.53;;;18.30;99.90;17.80;100440;;;;572358;247;24071;-79
2023/06/20 01:54:23;;;;;;;9.83;8.50;;;18.30;99.90;17.80;100443;;;;572481;247;24093;-79
2023/06/20 01:56:51;;;;;;;11.23;9.03;;;18.40;99.90;17.80;100442;;;;572357;247;24079;-80
2023/06/20 01:59:21;;;;;;;10.00;8.17;;;18.40;99.90;17.80;100446;;;;572252;247;24095;-80
2023/06/20 02:01:45;;;;;;;10.17;9.13;;;18.40;99.90;17.80;100446;;;;571821;247;25124;-80
2023/06/20 02:04:13;;;;;;;9.77;8.77;;;18.40;99.90;17.80;100447;;;;572267;247;24066;-80
2023/06/20 02:06:41;;;;;;;9.47;8.57;;;18.40;99.90;17.80;100446;;;;572356;247;23090;-80
2023/06/20 02:09:12;;;;;;;9.63;8.67;;;18.40;99.90;17.80;100446;;;;572315;247;24098;-80
2023/06/20 02:11:37;;;;;;;11.20;8.97;;;18.40;99.90;17.80;100442;;;;568101;247;23117;-79
2023/06/20 02:14:04;;;;;;;9.60;8.70;;;18.40;99.90;17.80;100446;;;;572620;247;24133;-78
2023/06/20 02:16:35;;;;;;;9.20;8.30;;;18.40;99.90;17.80;100447;;;;572730;247;24104;-79
2023/06/20 02:19:07;;;;;;;10.23;9.20;;;18.40;99.90;17.80;100455;;;;572837;247;24126;-79
2023/06/20 02:21:31;;;;;;;9.60;8.53;;;18.40;99.90;17.80;100449;;;;572313;247;24079;-79
2023/06/20 02:23:59;;;;;;;9.63;8.70;;;18.40;99.90;17.90;100446;;;;572166;247;24083;-79
2023/06/20 02:26:27;;;;;;;11.13;9.77;;;18.40;99.90;17.90;100442;;;;572216;247;24096;-79
2023/06/20 02:28:56;;;;;;;11.10;9.17;;;18.40;99.90;17.90;100442;;;;572226;247;24059;-80
2023/06/20 02:31:27;;;;;;;14.27;10.87;;;18.40;99.90;17.90;100448;;;;572164;247;24059;-82
2023/06/20 02:33:52;;;;;;;11.37;10.37;;;18.40;99.90;17.90;100440;;;;572310;247;24095;-80
2023/06/20 02:36:20;;;;;;;13.63;10.07;;;18.50;99.90;17.90;100443;;;;573142;246;23095;-81
2023/06/20 02:38:48;;;;;;;12.27;10.27;;;18.40;99.90;17.90;100439;;;;573137;247;24071;-81
2023/06/20 02:41:16;;;;;;;11.67;9.10;;;18.50;99.90;18.00;100453;;;;573517;247;24098;-80
2023/06/20 02:43:45;;;;;;;11.33;10.17;;;18.50;99.90;18.00;100447;;;;573398;247;23086;-79
2023/06/20 02:46:47;;;;;;;13.87;11.00;;;18.60;99.90;18.00;100443;;;;572889;247;24089;-80
2023/06/20 02:49:24;;;;;;;10.60;9.53;;;18.60;99.90;18.10;100446;;;;573074;247;24078;-80
2023/06/20 02:52:20;;;;;;;12.17;9.87;;;18.60;99.90;18.10;100446;;;;566071;247;24071;-79
2023/06/20 02:55:09;;;;;;;10.47;8.97;;;18.60;99.90;18.10;100446;;;;572428;247;24095;-79
2023/06/20 02:57:37;;;;;;;9.90;8.90;;;18.60;99.90;18.10;100446;;;;572810;247;24095;-79
2023/06/20 03:00:09;;;;;;;11.43;10.23;;;18.70;99.90;18.20;100444;;;;572200;247;24089;-80
2023/06/20 03:02:38;;;;;;;14.80;10.27;;;18.70;99.90;18.20;100444;;;;572752;247;23090;-79
2023/06/20 03:05:03;;;;;;;10.87;9.87;;;18.70;99.90;18.20;100455;;;;572374;247;24122;-80
2023/06/20 03:07:33;;;;;;;11.50;9.93;;;18.70;99.90;18.20;100451;;;;572822;247;23117;-81
2023/06/20 03:09:59;;;;;;;10.43;9.33;;;18.80;99.90;18.20;100458;;;;572680;247;24100;-81
2023/06/20 03:12:27;;;;;;;11.57;9.47;;;18.80;99.90;18.30;100461;;;;572211;247;24094;-81
2023/06/20 03:14:55;;;;;;;12.40;9.77;;;18.80;99.90;18.30;100462;;;;572247;247;24067;-80
2023/06/20 03:17:23;;;;;;;12.60;11.00;;;18.80;99.90;18.30;100457;;;;572210;247;24073;-80
2023/06/20 03:19:50;;;;;;;16.80;10.37;;;18.80;99.90;18.30;100459;;;;572399;247;24055;-80
2023/06/20 03:22:19;;;;;;;11.73;10.60;;;18.80;99.90;18.30;100466;;;;572247;247;24077;-80
2023/06/20 03:24:49;;;;;;;10.73;9.73;;;18.80;99.90;18.40;100460;;;;572176;247;24064;-80
2023/06/20 03:27:14;;;;;;;11.90;10.60;;;18.90;99.90;18.40;100464;;;;571955;247;24076;-81
2023/06/20 03:29:42;;;;;;;12.20;10.23;;;18.90;99.90;18.50;100457;;;;572255;247;23094;-80
2023/06/20 03:32:11;;;;;;;12.43;10.13;;;19.10;99.90;18.50;100456;;;;572321;247;24044;-80
2023/06/20 03:34:40;;;;;;;12.07;10.33;;;19.20;99.90;18.60;100457;;;;572214;247;24067;-80
2023/06/20 03:37:08;;;;;;;10.27;9.37;;;19.20;99.90;18.70;100465;;;;572543;247;24085;-81
2023/06/20 03:39:37;;;;;;;11.03;9.87;;;19.30;99.90;18.80;100467;;;;572289;247;24093;-79
2023/06/20 03:42:09;;;;;;;11.50;10.03;;;19.30;99.90;18.90;100473;;;;572555;247;23077;-82
2023/06/20 03:44:33;;;;;;;10.07;9.17;;;19.40;99.90;19.00;100476;;;;570196;247;24136;-82
2023/06/20 03:47:01;;;;;;;10.73;9.73;;;19.50;99.90;19.00;100469;;;;572852;245;24067;-82
2023/06/20 03:49:29;;;;;;;11.17;10.00;;;19.60;99.90;19.10;100467;;;;573964;247;24081;-82
2023/06/20 03:51:57;;;;;;;11.20;10.10;;;19.60;99.90;19.10;100465;;;;573583;247;23079;-82
2023/06/20 03:54:25;;;;;;;12.83;10.57;;;19.70;99.90;19.20;100467;;;;573440;247;23154;-83
2023/06/20 03:56:53;;;;;;;11.63;10.07;;;19.80;99.90;19.20;100467;;;;572949;247;23082;-83
2023/06/20 03:59:25;;;;;;;13.53;10.77;;;19.80;99.90;19.30;100470;;;;572661;247;24104;-83
2023/06/20 04:01:50;;;;;;;11.90;10.03;;;19.80;99.90;19.40;100473;;;;572560;247;24071;-83
2023/06/20 04:04:21;;;;;;;11.57;10.30;;;19.90;99.90;19.40;100479;;;;572776;247;23100;-82
2023/06/20 04:06:49;;;;;;;13.03;10.03;;;20.00;99.90;19.40;100477;;;;572371;247;24083;-82
2023/06/20 04:09:20;;;;;;;13.70;9.87;;;20.00;99.90;19.50;100482;;;;572499;247;24055;-81
2023/06/20 04:11:48;;;;;;;13.67;12.27;;;20.00;99.90;19.50;100486;;;;572427;247;24062;-83
2023/06/20 04:14:16;;;;;;;14.67;10.87;;;20.00;99.90;19.50;100485;;;;572868;247;24072;-81
2023/06/20 04:16:44;;;;;;;11.20;10.10;;;20.00;99.90;19.50;100482;;;;572911;247;23140;-83
2023/06/20 04:19:12;;;;;;;11.63;9.83;;;20.00;99.90;19.40;100477;;;;572904;247;24104;-82
2023/06/20 04:21:39;;;;;;;9.70;8.80;;;20.00;99.90;19.40;100479;;;;572959;247;24096;-81
2023/06/20 04:24:11;;;;;;;10.53;9.43;;;20.00;99.90;19.50;100479;;;;572777;247;23083;-82
2023/06/20 04:26:38;;;;;;;9.67;8.67;;;20.00;99.90;19.50;100491;;;;572693;247;24082;-82
2023/06/20 04:29:03;;;;;;;14.23;9.77;;;20.00;99.90;19.50;100492;;;;572331;247;24086;-81
2023/06/20 04:31:31;;;;;;;10.73;9.83;;;20.00;99.90;19.50;100496;;;;572443;247;24063;-81
2023/06/20 04:33:59;;;;;;;10.17;9.07;;;20.00;99.90;19.50;100489;;;;572219;247;23135;-81
2023/06/20 04:36:28;;;;;;;11.93;8.63;;;20.00;99.90;19.50;100491;;;;572368;247;24125;-80
2023/06/20 04:38:55;;;;;;;11.80;8.63;;;20.00;99.90;19.60;100494;;;;572341;247;24065;-80
2023/06/20 04:41:23;;;;;;;10.27;8.70;;;20.10;99.90;19.60;100500;;;;572235;247;23145;-79
2023/06/20 04:43:51;;;;;;;9.87;8.37;;;20.10;99.90;19.70;100489;;;;572738;247;24089;-83
2023/06/20 04:46:19;;;;;;;12.27;9.20;;;20.20;99.90;19.80;100498;;;;572645;247;23092;-81
2023/06/20 04:48:47;;;;;;;18.17;9.47;;;20.30;99.90;20.00;100485;;;;572852;247;23097;-82
2023/06/20 04:51:16;;;;;;;16.17;9.23;;;20.50;99.90;20.30;100483;;;;572649;247;24091;-80
2023/06/20 04:53:43;;;;;;;10.47;8.47;;;20.90;99.90;20.40;100497;;;;572684;247;24103;-81
2023/06/20 04:56:15;;;;;;;11.73;8.83;;;21.10;99.90;20.60;100500;;;;572765;247;24064;-80
2023/06/20 04:58:41;;;;;;;13.63;8.47;;;21.30;99.90;20.90;100494;;;;572397;245;24116;-81
2023/06/20 05:01:09;;;;;;;12.53;9.00;;;21.30;99.90;21.40;100500;;;;574001;247;24109;-81
2023/06/20 05:03:36;;;;;;;13.33;8.63;;;21.80;99.90;22.10;100491;;;;574104;247;24082;-79
2023/06/20 05:06:06;;;;;;;10.03;8.70;;;23.20;99.90;22.70;100496;;;;573772;247;24053;-81
2023/06/20 05:08:33;;;;;;;11.83;8.67;;;23.20;99.90;24.30;100493;;;;574329;247;24058;-79
2023/06/20 05:11:01;;;;;;;10.33;8.03;;;24.60;99.90;25.90;100497;;;;573306;247;24093;-81
2023/06/20 05:13:29;;;;;;;8.07;7.33;;;26.30;99.90;27.30;100499;;;;573208;247;24129;-80
2023/06/20 05:16:00;;;;;;;8.30;7.50;;;27.90;99.90;28.70;100501;;;;573156;247;24085;-79
2023/06/20 05:18:25;;;;;;;10.25;8.15;;;29.40;99.90;29.70;100501;;;;573316;247;23091;-79
2023/06/20 05:20:55;;;;;;;11.75;7.25;;;30.40;99.90;30.80;100503;;;;572921;247;23080;-79
2023/06/20 05:23:21;;;;;;;8.85;7.20;;;31.50;99.90;31.90;100503;;;;572612;247;23123;-81
2023/06/20 05:25:49;;;;;;;7.55;6.90;;;32.60;98.90;32.80;100504;;;;581307;247;23082;-80
2023/06/20 05:28:16;;;;;;;10.43;8.05;;;33.50;95.10;33.50;100500;;;;572475;247;23072;-80
2023/06/20 05:30:44;;;;;;;7.80;7.00;;;34.40;92.90;34.30;100501;;;;572510;247;24121;-81
2023/06/20 05:33:12;;;;;;;8.90;6.75;;;35.10;89.20;35.10;100502;;;;572444;247;23076;-81
2023/06/20 05:35:43;;;;;;;11.57;7.12;;;35.90;85.30;35.90;100508;;;;572438;247;23168;-82
2023/06/20 05:38:08;;;;;;;7.40;6.70;;;36.70;78.60;36.50;100514;;;;571954;247;23096;-81
2023/06/20 05:40:37;;;;;;;8.00;6.65;;;37.60;70.80;36.80;100507;;;;572156;247;23084;-82
2023/06/20 05:43:05;;;;;;;16.15;6.93;;;37.60;70.80;37.40;100520;;;;572260;247;23115;-82
2023/06/20 05:45:33;;;;;;;8.05;6.87;;;38.20;68.00;37.40;100512;;;;572651;247;23064;-81
2023/06/20 05:48:01;;;;;;;7.28;6.60;;;37.50;65.10;36.30;100523;;;;572598;247;23129;-81
2023/06/20 05:50:34;;;;;;;8.38;6.97;;;36.50;66.90;35.40;100528;;;;572605;247;23077;-82
2023/06/20 05:52:59;;;;;;;6.65;6.25;;;36.50;66.90;34.80;100525;;;;572566;247;24126;-81
2023/06/20 05:55:26;;;;;;;7.62;6.93;;;35.80;66.70;34.10;100534;;;;572591;247;23085;-83
2023/06/20 05:57:54;;;;;;;7.25;6.55;;;34.70;70.10;33.90;100540;;;;572469;247;23096;-82
2023/06/20 06:00:23;;;;;;;11.32;7.03;;;34.80;71.00;34.20;100533;;;;572352;247;23076;-82
2023/06/20 06:02:52;;;;;;;9.93;6.80;;;35.50;70.00;35.30;100536;;;;572160;247;23138;-82
2023/06/20 06:05:20;;;;;;;9.05;6.85;;;35.50;69.90;36.10;100542;;;;572310;247;23069;-82
2023/06/20 06:07:48;;;;;;;8.20;6.60;;;36.50;67.90;36.10;100547;;;;572231;247;23096;-84
2023/06/20 06:10:16;;;;;;;8.55;7.43;;;36.60;66.00;35.60;100552;;;;572705;245;23083;-82
2023/06/20 06:12:43;;;;;;;8.27;7.47;;;36.20;66.40;36.10;100552;;;;573616;247;23099;-81
2023/06/20 06:15:12;;;;;;;7.85;6.97;;;36.50;67.30;37.40;100558;;;;573118;247;23104;-83
2023/06/20 06:17:39;;;;;;;8.05;7.25;;;37.60;65.50;38.70;100558;;;;573461;247;23088;-81
2023/06/20 06:20:10;;;;;;;7.87;7.20;;;38.90;62.90;40.10;100564;;;;573410;247;23063;-81
2023/06/20 06:22:36;;;;;;;8.68;7.05;;;41.30;57.30;41.00;100555;;;;568403;247;23099;-82
2023/06/20 06:25:07;;;;;;;7.93;7.22;;;41.20;56.60;41.80;100549;;;;573294;247;23102;-80
2023/06/20 06:27:32;;;;;;;6.78;6.18;;;42.20;55.10;42.70;100558;;;;568192;247;23176;-82
2023/06/20 06:30:00;;;;;;;8.38;7.57;;;43.60;51.10;43.10;100560;;;;572857;247;23161;-81
2023/06/20 06:32:31;;;;;;;8.82;8.00;;;43.50;51.50;43.70;100568;;;;572488;247;23094;-81
2023/06/20 06:35:00;;;;;;;8.75;7.95;;;44.10;50.70;44.10;100560;;;;572511;247;23108;-84
2023/06/20 06:37:25;;;;;;;11.27;7.68;;;44.70;48.40;44.20;100561;;;;572331;247;23080;-85
2023/06/20 06:39:56;;;;;;;8.93;7.70;;;44.70;48.40;44.60;100560;;;;572625;247;24107;-85
2023/06/20 06:42:23;;;;;;;9.35;7.47;;;45.00;47.90;44.50;100563;;;;572483;247;23088;-84
2023/06/20 06:44:51;;;;;;;11.88;7.97;;;45.00;47.70;45.10;100556;;;;567399;247;35241;-84
2023/06/20 06:47:19;;;;;;;7.87;7.18;;;45.40;47.00;45.80;100563;;;;572665;247;23079;-84
2023/06/20 06:49:47;;;;;;;9.20;7.50;;;46.10;46.40;46.60;100564;;;;572546;247;23075;-84
2023/06/20 06:52:15;;;;;;;8.93;7.28;;;46.90;45.80;47.30;100568;;;;572567;247;23080;-82
2023/06/20 06:54:43;;;;;;;11.75;7.68;;;47.50;44.70;47.60;100576;;;;572563;247;23087;-85
2023/06/20 06:57:12;;;;;;;11.45;8.27;;;48.30;42.90;47.80;100563;;;;572561;247;23088;-84
2023/06/20 06:59:40;;;;;;;13.35;7.07;;;48.20;42.10;48.00;100566;;;;572263;247;23141;-85
2023/06/20 07:02:08;;;;;;;11.25;7.30;;;48.40;41.90;48.10;100578;;;;572122;247;23073;-85
2023/06/20 07:04:35;;;;;;;8.77;7.93;;;48.50;41.30;48.30;100577;;;;572365;247;23080;-84
2023/06/20 07:07:06;;;;;;;8.75;7.35;;;48.60;40.80;48.40;100578;;;;572335;247;23081;-84
2023/06/20 07:09:37;;;;;;;9.40;8.48;;;48.80;40.80;49.00;100587;;;;572326;247;23111;-83
2023/06/20 07:12:02;;;;;;;9.43;7.50;;;49.20;39.80;48.90;100590;;;;572050;247;23102;-85
2023/06/20 07:14:33;;;;;;;12.82;7.28;;;49.30;39.60;48.90;100591;;;;572192;247;23120;-82
2023/06/20 07:16:58;;;;;;;7.50;6.80;;;49.20;39.20;48.90;100591;;;;572429;247;23088;-82
2023/06/20 07:19:25;;;;;;;7.97;7.12;;;49.30;39.10;48.90;100591;;;;572795;247;23087;-82
2023/06/20 07:21:53;;;;;;;8.75;7.47;;;49.20;39.00;49.00;100591;;;;573124;246;23071;-82
2023/06/20 07:24:21;;;;;;;9.02;8.27;;;49.20;39.50;49.40;100578;;;;574064;247;23075;-85
2023/06/20 07:26:49;;;;;;;8.68;7.22;;;49.60;39.00;49.90;100586;;;;573828;247;23068;-82
2023/06/20 07:29:17;;;;;;;12.70;8.60;;;50.00;39.20;50.30;100583;;;;573645;247;23075;-83
2023/06/20 07:31:45;;;;;;;9.00;7.22;;;50.50;38.80;49.90;100587;;;;573496;247;23076;-82
2023/06/20 07:34:13;;;;;;;10.70;8.07;;;50.30;36.50;49.00;100586;;;;572997;247;23093;-82
2023/06/20 07:36:41;;;;;;;10.80;8.93;;;49.80;37.90;48.30;100587;;;;572777;247;23076;-82
2023/06/20 07:39:12;;;;;;;15.68;8.07;;;49.10;38.90;48.40;100580;;;;573019;247;23127;-82
2023/06/20 07:41:37;;;;;;;14.32;7.95;;;48.90;39.30;48.80;100589;;;;572525;247;23087;-80
2023/06/20 07:44:06;;;;;;;15.15;7.03;;;49.00;39.30;48.90;100589;;;;572457;247;23104;-81
2023/06/20 07:46:33;;;;;;;24.48;7.85;;;49.20;38.80;49.30;100578;;;;572929;247;23122;-80
2023/06/20 07:49:01;;;;;;;13.02;8.35;;;49.50;38.60;49.90;100593;;;;572893;247;23071;-81
2023/06/20 07:51:33;;;;;;;16.10;7.62;;;49.90;37.80;49.40;100588;;;;572967;247;23091;-80
2023/06/20 07:53:56;;;;;;;13.60;7.53;;;49.90;37.80;49.00;100593;;;;572759;247;24215;-81
2023/06/20 07:56:24;;;;;;;14.57;7.90;;;49.60;38.00;48.10;100587;;;;573000;247;23186;-81
2023/06/20 07:58:52;;;;;;;9.27;6.55;;;49.00;37.90;46.90;100595;;;;572646;247;23104;-82
2023/06/20 08:01:24;;;;;;;12.27;7.07;;;47.90;38.50;46.00;100597;;;;572724;247;23076;-82
2023/06/20 08:03:49;;;;;;;8.40;6.97;;;47.00;39.10;45.60;100600;;;;573027;246;23098;-83
2023/06/20 08:06:21;;;;;;;11.65;7.62;;;46.30;39.50;45.40;100600;;;;572694;247;23090;-82
2023/06/20 08:08:46;;;;;;;12.35;7.00;;;46.00;40.30;46.00;100604;;;;572665;247;23077;-81
2023/06/20 08:11:18;;;;;;;10.45;7.65;;;46.20;40.30;45.70;100597;;;;572847;247;23073;-81
2023/06/20 08:13:49;;;;;;;14.13;6.70;;;46.20;40.30;45.30;100599;;;;572267;247;23133;-83
2023/06/20 08:16:13;;;;;;;22.55;8.68;;;45.80;40.20;45.30;100600;;;;572761;247;23145;-84
2023/06/20 08:18:43;;;;;;;16.87;8.57;;;45.70;41.10;45.60;100598;;;;573436;247;23081;-85
2023/06/20 08:21:11;;;;;;;13.98;8.00;;;45.90;41.50;46.30;100601;;;;573315;247;23083;-83
2023/06/20 08:23:39;;;;;;;12.00;7.05;;;46.30;41.20;47.00;100596;;;;573105;247;23080;-82
2023/06/20 08:26:10;;;;;;;7.70;6.93;;;46.90;40.70;47.60;100596;;;;572672;247;23079;-82
2023/06/20 08:28:38;;;;;;;9.00;7.30;;;47.70;39.20;47.80;100595;;;;572969;247;23072;-82
2023/06/20 08:31:09;;;;;;;12.43;7.05;;;48.00;39.10;48.30;100590;;;;572795;247;23061;-82
2023/06/20 08:33:37;;;;;;;8.70;7.07;;;48.50;39.00;49.00;100604;;;;568680;246;23082;-80
2023/06/20 08:36:05;;;;;;;11.55;7.90;;;49.20;37.90;49.10;100600;;;;573780;247;23110;-80
2023/06/20 08:38:33;;;;;;;7.10;6.35;;;49.60;36.90;48.80;100607;;;;573599;247;23124;-83
2023/06/20 08:41:02;;;;;;;8.50;7.32;;;49.60;37.00;48.70;100607;;;;573396;247;23149;-81
2023/06/20 08:43:29;;;;;;;15.50;8.30;;;49.50;36.60;49.20;100606;;;;573319;247;23083;-82
2023/06/20 08:45:56;;;;;;;14.10;8.57;;;49.80;37.10;49.50;100605;;;;573434;247;23101;-82
2023/06/20 08:48:28;;;;;;;8.32;7.43;;;50.00;37.20;49.50;100607;;;;573523;247;23122;-81
2023/06/20 08:50:52;;;;;;;12.93;6.85;;;50.00;36.60;49.10;100606;;;;573479;247;23109;-82
2023/06/20 08:53:30;;;;;;;10.43;7.53;;;50.00;36.30;49.30;100607;;;;573638;247;23082;-83
2023/06/20 08:55:48;;;;;;;9.45;7.70;;;50.00;36.50;49.10;100599;;;;572907;247;23076;-81
2023/06/20 08:58:16;;;;;;;11.85;8.40;;;50.00;36.70;49.40;100601;;;;573310;247;23095;-82
2023/06/20 09:00:45;;;;;;;12.15;6.97;;;50.10;36.60;49.00;100605;;;;564126;251;23145;-83
2023/06/20 09:03:12;;;;;;;12.43;7.28;;;49.90;36.40;48.90;100610;;;;562552;251;23164;-83
2023/06/20 09:05:46;;;;;;;9.00;7.82;;;49.60;36.80;49.60;100615;;;;562444;251;23343;-84
2023/06/20 09:08:14;;;;;;;11.55;7.60;;;50.00;36.00;49.50;100601;;;;562328;251;23123;-83
2023/06/20 09:10:44;;;;;;;12.77;7.32;;;50.30;35.90;49.30;100610;;;;562139;251;23145;-83
2023/06/20 09:13:09;;;;;;;13.07;8.63;;;50.40;35.60;49.00;100608;;;;564308;251;24168;-83
2023/06/20 09:15:38;;;;;;;13.18;8.13;;;50.10;35.70;48.90;100608;;;;554427;256;23155;-82
2023/06/20 09:18:11;;;;;;;18.08;7.87;;;49.70;36.20;48.70;100608;;;;564531;251;24141;-83
2023/06/20 09:20:40;;;;;;;10.20;8.50;;;49.70;36.20;49.00;100617;;;;551445;257;23147;-83
2023/06/20 09:23:06;;;;;;;12.60;7.85;;;49.90;36.30;48.70;100615;;;;573109;247;23150;-81
2023/06/20 09:25:36;;;;;;;10.03;8.17;;;49.90;37.00;48.70;100616;;;;568416;247;35244;-82
2023/06/20 09:28:02;;;;;;;9.60;7.87;;;49.90;36.30;48.50;100621;;;;573099;247;23084;-82
2023/06/20 09:30:34;;;;;;;10.80;7.87;;;49.80;36.60;48.60;100620;;;;576838;244;23143;-85
2023/06/20 09:32:58;;;;;;;13.88;8.55;;;49.80;36.60;48.30;100631;;;;580265;243;23049;-84
2023/06/20 09:35:26;;;;;;;13.60;8.35;;;49.70;36.70;48.40;100625;;;;562028;252;23125;-84
2023/06/20 09:37:58;;;;;;;12.93;8.05;;;49.80;36.60;48.70;100620;;;;571638;247;23109;-86
2023/06/20 09:40:27;;;;;;;11.07;8.05;;;49.80;36.50;48.40;100628;;;;563919;248;23078;-83
2023/06/20 09:42:51;;;;;;;8.48;7.68;;;49.60;36.90;48.30;100630;;;;571035;246;23089;-85
2023/06/20 09:45:21;;;;;;;19.58;8.32;;;49.60;37.00;48.80;100629;;;;580126;243;23066;-85
2023/06/20 09:47:46;;;;;;;8.82;8.02;;;49.90;37.30;49.70;100634;;;;579200;244;24096;-85
2023/06/20 09:50:17;;;;;;;12.35;8.80;;;50.50;36.90;49.80;100635;;;;572003;245;23132;-86
2023/06/20 09:53:13;;;;;;;12.07;8.48;;;51.00;36.20;49.40;100632;;;;564831;249;23104;-84
2023/06/20 09:55:41;;;;;;;12.50;8.70;;;50.90;35.90;49.40;100631;;;;581899;243;23080;-84
2023/06/20 09:58:13;;;;;;;9.90;8.77;;;50.90;36.10;49.50;100632;;;;571564;246;23129;-84
2023/06/20 10:00:37;;;;;;;9.98;8.10;;;51.10;36.10;49.40;100638;;;;572069;245;23113;-84
2023/06/20 10:03:09;;;;;;;9.93;8.15;;;51.10;35.80;49.10;100632;;;;583985;242;23066;-80
2023/06/20 10:05:36;;;;;;;18.37;8.82;;;50.80;35.80;49.10;100639;;;;583786;242;23088;-84
2023/06/20 10:08:04;;;;;;;9.57;8.52;;;50.70;36.30;49.00;100635;;;;583488;242;23080;-83
2023/06/20 10:10:32;;;;;;;10.95;8.10;;;50.60;35.60;48.50;100637;;;;580949;247;23016;-84
2023/06/20 10:13:03;;;;;;;9.32;8.35;;;50.30;36.80;48.20;100634;;;;572784;246;23113;-83
2023/06/20 10:15:28;;;;;;;9.40;8.65;;;49.90;36.10;47.20;100634;;;;573446;246;23140;-81
2023/06/20 10:17:56;;;;;;;10.60;9.07;;;49.20;37.10;46.70;100639;;;;573211;245;35180;-81
2023/06/20 10:20:27;;;;;;;8.90;8.05;;;48.40;37.10;45.70;100635;;;;564656;248;23116;-81
2023/06/20 10:22:58;;;;;;;10.15;7.90;;;47.60;37.60;44.90;100632;;;;564943;246;23065;-84
2023/06/20 10:25:23;;;;;;;9.15;8.32;;;46.70;38.80;44.70;100630;;;;571922;246;23090;-83
2023/06/20 10:27:54;;;;;;;12.25;8.20;;;46.30;39.10;44.30;100632;;;;583731;242;23025;-82
2023/06/20 10:30:49;;;;;;;11.93;8.13;;;45.90;39.30;43.50;100646;;;;574310;245;23123;-84
2023/06/20 10:33:32;;;;;;;9.27;8.32;;;45.30;39.90;42.90;100636;;;;561122;252;23179;-82
2023/06/20 10:36:12;;;;;;;9.05;8.23;;;44.70;40.70;41.80;100634;;;;563348;251;23124;-82
2023/06/20 10:38:42;;;;;;;9.75;8.82;;;43.80;41.60;41.00;100631;;;;582830;243;23051;-81
2023/06/20 10:41:14;;;;;;;17.65;9.15;;;42.70;42.50;39.90;100632;;;;582402;241;23059;-83
2023/06/20 10:43:57;;;;;;;15.30;9.05;;;41.60;43.90;38.50;100636;;;;570436;248;23119;-83
2023/06/20 10:46:42;;;;;;;10.52;9.57;;;40.00;45.70;37.20;100627;;;;563146;251;23125;-79
2023/06/20 10:49:10;;;;;;;11.68;8.30;;;38.30;48.50;36.10;100625;;;;578236;241;23093;-78
2023/06/20 10:51:51;;;;;;;11.63;8.75;;;35.70;51.80;34.80;100625;;;;578452;243;23073;-79
2023/06/20 10:54:16;;;;;;;14.68;8.40;;;35.60;51.70;33.70;100623;;;;562291;251;23150;-77
2023/06/20 10:56:47;;;;;;;13.15;9.13;;;33.60;56.10;32.90;100617;;;;590485;237;23065;-81
2023/06/20 10:59:13;;;;;;;9.25;8.35;;;32.70;57.70;32.10;100614;;;;588984;242;23064;-81
2023/06/20 11:01:44;;;;;;;9.15;8.23;;;32.60;57.60;31.30;100618;;;;566813;246;23073;-86
2023/06/20 11:04:09;;;;;;;13.48;9.38;;;31.80;59.20;30.70;100616;;;;573373;246;24104;-78
2023/06/20 11:06:37;;;;;;;12.43;8.40;;;31.20;60.50;30.00;100621;;;;585009;241;23139;-80
2023/06/20 11:09:07;;;;;;;10.18;9.18;;;30.50;62.00;29.50;100625;;;;575108;246;23056;-82
2023/06/20 11:11:32;;;;;;;13.20;9.45;;;30.00;64.30;29.10;100609;;;;584619;241;24149;-81
2023/06/20 11:14:13;;;;;;;15.20;9.25;;;29.60;64.50;28.80;100609;;;;593466;241;23089;-79
2023/06/20 11:16:44;;;;;;;12.20;8.30;;;29.20;66.60;28.60;100609;;;;573977;246;23066;-79